sensor_id;sensor_type;location;lat;lon;timestamp;temperature;humidity
64685;DHT22;51109;47.414;18.954;2023-01-08T00:00:56;6.40;99.90
64685;DHT22;51109;47.414;18.954;2023-01-08T00:03:22;6.30;99.90
64685;DHT22;51109;47.414;18.954;2023-01-08T00:05:48;6.30;99.90
64685;DHT22;51109;47.414;18.954;2023-01-08T00:08:15;6.30;99.90
64685;DHT22;51109;47.414;18.954;2023-01-08T00:10:41;6.30;99.90
64685;DHT22;51109;47.414;18.954;2023-01-08T00:13:06;6.30;99.90
64685;DHT22;51109;47.414;18.954;2023-01-08T00:15:33;6.30;99.90
64685;DHT22;51109;47.414;18.954;2023-01-08T00:17:59;6.30;99.90
64685;DHT22;51109;47.414;18.954;2023-01-08T00:20:26;6.30;99.90
64685;DHT22;51109;47.414;18.954;2023-01-08T00:22:52;6.30;99.90
64685;DHT22;51109;47.414;18.954;2023-01-08T00:25:19;6.20;99.90
64685;DHT22;51109;47.414;18.954;2023-01-08T00:27:45;6.30;99.90
64685;DHT22;51109;47.414;18.954;2023-01-08T00:30:12;6.30;99.90
64685;DHT22;51109;47.414;18.954;2023-01-08T00:32:38;6.30;99.90
64685;DHT22;51109;47.414;18.954;2023-01-08T00:35:04;6.30;99.90
64685;DHT22;51109;47.414;18.954;2023-01-08T00:37:30;6.20;99.90
64685;DHT22;51109;47.414;18.954;2023-01-08T00:39:56;6.20;99.90
64685;DHT22;51109;47.414;18.954;2023-01-08T00:42:22;6.20;99.90
64685;DHT22;51109;47.414;18.954;2023-01-08T00:44:48;6.20;99.90
64685;DHT22;51109;47.414;18.954;2023-01-08T00:47:13;6.20;99.90
64685;DHT22;51109;47.414;18.954;2023-01-08T00:49:40;6.20;99.90
64685;DHT22;51109;47.414;18.954;2023-01-08T00:52:05;6.30;99.90
64685;DHT22;51109;47.414;18.954;2023-01-08T00:54:32;6.20;99.90
64685;DHT22;51109;47.414;18.954;2023-01-08T00:56:57;6.20;99.90
64685;DHT22;51109;47.414;18.954;2023-01-08T00:59:23;6.20;99.90
64685;DHT22;51109;47.414;18.954;2023-01-08T01:01:49;6.20;99.90
64685;DHT22;51109;47.414;18.954;2023-01-08T01:04:15;6.20;99.90
64685;DHT22;51109;47.414;18.954;2023-01-08T01:06:41;6.20;99.90
64685;DHT22;51109;47.414;18.954;2023-01-08T01:09:07;6.10;99.90
64685;DHT22;51109;47.414;18.954;2023-01-08T01:11:33;6.20;99.90
64685;DHT22;51109;47.414;18.954;2023-01-08T01:14:00;6.20;99.90
64685;DHT22;51109;47.414;18.954;2023-01-08T01:16:26;6.20;99.90
64685;DHT22;51109;47.414;18.954;2023-01-08T01:18:53;6.20;99.90
64685;DHT22;51109;47.414;18.954;2023-01-08T01:21:24;6.20;99.90
64685;DHT22;51109;47.414;18.954;2023-01-08T01:23:52;6.20;99.90
64685;DHT22;51109;47.414;18.954;2023-01-08T01:26:20;6.10;99.90
64685;DHT22;51109;47.414;18.954;2023-01-08T01:28:48;6.10;99.90
64685;DHT22;51109;47.414;18.954;2023-01-08T01:31:14;6.10;99.90
64685;DHT22;51109;47.414;18.954;2023-01-08T01:33:41;6.20;99.90
64685;DHT22;51109;47.414;18.954;2023-01-08T01:36:09;6.20;99.90
64685;DHT22;51109;47.414;18.954;2023-01-08T01:38:36;6.20;99.90
64685;DHT22;51109;47.414;18.954;2023-01-08T01:41:02;6.20;99.90
64685;DHT22;51109;47.414;18.954;2023-01-08T01:43:42;6.10;99.90
64685;DHT22;51109;47.414;18.954;2023-01-08T01:46:35;6.10;99.90
64685;DHT22;51109;47.414;18.954;2023-01-08T01:49:11;6.20;99.90
64685;DHT22;51109;47.414;18.954;2023-01-08T01:51:45;6.10;99.90
64685;DHT22;51109;47.414;18.954;2023-01-08T01:54:12;6.10;99.90
64685;DHT22;51109;47.414;18.954;2023-01-08T01:56:40;6.10;99.90
64685;DHT22;51109;47.414;18.954;2023-01-08T01:59:06;6.10;99.90
64685;DHT22;51109;47.414;18.954;2023-01-08T02:04:27;6.10;99.90
64685;DHT22;51109;47.414;18.954;2023-01-08T02:12:31;6.10;99.90
64685;DHT22;51109;47.414;18.954;2023-01-08T02:28:23;6.00;99.90
64685;DHT22;51109;47.414;18.954;2023-01-08T02:30:51;6.00;99.90
64685;DHT22;51109;47.414;18.954;2023-01-08T02:33:17;6.00;99.90
64685;DHT22;51109;47.414;18.954;2023-01-08T02:36:16;6.00;99.90
64685;DHT22;51109;47.414;18.954;2023-01-08T02:41:35;6.00;99.90
64685;DHT22;51109;47.414;18.954;2023-01-08T02:44:07;6.00;99.90
64685;DHT22;51109;47.414;18.954;2023-01-08T02:46:35;6.00;99.90
64685;DHT22;51109;47.414;18.954;2023-01-08T02:49:06;6.00;99.90
64685;DHT22;51109;47.414;18.954;2023-01-08T02:51:46;5.90;99.90
64685;DHT22;51109;47.414;18.954;2023-01-08T02:54:18;6.00;99.90
64685;DHT22;51109;47.414;18.954;2023-01-08T02:56:49;6.00;99.90
64685;DHT22;51109;47.414;18.954;2023-01-08T02:59:15;6.00;99.90
64685;DHT22;51109;47.414;18.954;2023-01-08T03:01:43;6.00;99.90
64685;DHT22;51109;47.414;18.954;2023-01-08T03:04:17;6.00;99.90
64685;DHT22;51109;47.414;18.954;2023-01-08T03:06:44;6.00;99.90
64685;DHT22;51109;47.414;18.954;2023-01-08T03:09:11;6.00;99.90
64685;DHT22;51109;47.414;18.954;2023-01-08T03:11:44;6.00;99.90
64685;DHT22;51109;47.414;18.954;2023-01-08T03:16:48;6.00;99.90
64685;DHT22;51109;47.414;18.954;2023-01-08T03:19:35;5.90;99.90
64685;DHT22;51109;47.414;18.954;2023-01-08T03:22:07;5.90;99.90
64685;DHT22;51109;47.414;18.954;2023-01-08T03:24:37;5.90;99.90
64685;DHT22;51109;47.414;18.954;2023-01-08T03:27:05;5.90;99.90
64685;DHT22;51109;47.414;18.954;2023-01-08T03:29:35;5.90;99.90
64685;DHT22;51109;47.414;18.954;2023-01-08T03:32:04;5.90;99.90
64685;DHT22;51109;47.414;18.954;2023-01-08T03:34:35;5.90;99.90
64685;DHT22;51109;47.414;18.954;2023-01-08T03:37:05;6.00;99.90
64685;DHT22;51109;47.414;18.954;2023-01-08T03:42:20;5.90;99.90
64685;DHT22;51109;47.414;18.954;2023-01-08T03:44:47;5.90;99.90
64685;DHT22;51109;47.414;18.954;2023-01-08T03:47:13;6.00;99.90
64685;DHT22;51109;47.414;18.954;2023-01-08T03:49:40;5.90;99.90
64685;DHT22;51109;47.414;18.954;2023-01-08T03:52:08;5.90;99.90
64685;DHT22;51109;47.414;18.954;2023-01-08T03:54:35;5.90;99.90
64685;DHT22;51109;47.414;18.954;2023-01-08T03:57:01;5.90;99.90
64685;DHT22;51109;47.414;18.954;2023-01-08T03:59:27;5.90;99.90
64685;DHT22;51109;47.414;18.954;2023-01-08T04:01:53;6.00;99.90
64685;DHT22;51109;47.414;18.954;2023-01-08T04:04:19;5.90;99.90
64685;DHT22;51109;47.414;18.954;2023-01-08T04:06:44;5.90;99.90
64685;DHT22;51109;47.414;18.954;2023-01-08T04:09:10;5.90;99.90
64685;DHT22;51109;47.414;18.954;2023-01-08T04:11:36;5.80;99.90
64685;DHT22;51109;47.414;18.954;2023-01-08T04:14:02;5.90;99.90
64685;DHT22;51109;47.414;18.954;2023-01-08T04:16:28;5.80;99.90
64685;DHT22;51109;47.414;18.954;2023-01-08T04:18:54;5.80;99.90
64685;DHT22;51109;47.414;18.954;2023-01-08T04:21:20;5.80;99.90
64685;DHT22;51109;47.414;18.954;2023-01-08T04:23:46;5.80;99.90
64685;DHT22;51109;47.414;18.954;2023-01-08T04:26:12;5.80;99.90
64685;DHT22;51109;47.414;18.954;2023-01-08T04:28:38;5.80;99.90
64685;DHT22;51109;47.414;18.954;2023-01-08T04:31:05;5.80;99.90
64685;DHT22;51109;47.414;18.954;2023-01-08T04:33:32;5.80;99.90
64685;DHT22;51109;47.414;18.954;2023-01-08T04:35:57;5.80;99.90
64685;DHT22;51109;47.414;18.954;2023-01-08T04:38:23;5.80;99.90
64685;DHT22;51109;47.414;18.954;2023-01-08T04:40:49;5.70;99.90
64685;DHT22;51109;47.414;18.954;2023-01-08T04:43:15;5.70;99.90
64685;DHT22;51109;47.414;18.954;2023-01-08T04:45:41;5.80;99.90
64685;DHT22;51109;47.414;18.954;2023-01-08T04:48:07;5.80;99.90
64685;DHT22;51109;47.414;18.954;2023-01-08T04:50:32;5.70;99.90
64685;DHT22;51109;47.414;18.954;2023-01-08T04:52:58;5.70;99.90
64685;DHT22;51109;47.414;18.954;2023-01-08T04:55:25;5.70;99.90
64685;DHT22;51109;47.414;18.954;2023-01-08T04:57:50;5.80;99.90
64685;DHT22;51109;47.414;18.954;2023-01-08T05:00:16;5.70;99.90
64685;DHT22;51109;47.414;18.954;2023-01-08T05:02:42;5.70;99.90
64685;DHT22;51109;47.414;18.954;2023-01-08T05:05:08;5.80;99.90
64685;DHT22;51109;47.414;18.954;2023-01-08T05:07:34;5.80;99.90
64685;DHT22;51109;47.414;18.954;2023-01-08T05:10:00;5.80;99.90
64685;DHT22;51109;47.414;18.954;2023-01-08T05:12:26;5.70;99.90
64685;DHT22;51109;47.414;18.954;2023-01-08T05:14:52;5.80;99.90
64685;DHT22;51109;47.414;18.954;2023-01-08T05:17:17;5.70;99.90
64685;DHT22;51109;47.414;18.954;2023-01-08T05:19:44;5.80;99.90
64685;DHT22;51109;47.414;18.954;2023-01-08T05:22:09;5.70;99.90
64685;DHT22;51109;47.414;18.954;2023-01-08T05:24:35;5.70;99.90
64685;DHT22;51109;47.414;18.954;2023-01-08T05:27:01;5.70;99.90
64685;DHT22;51109;47.414;18.954;2023-01-08T05:29:27;5.70;99.90
64685;DHT22;51109;47.414;18.954;2023-01-08T05:31:53;5.70;99.90
64685;DHT22;51109;47.414;18.954;2023-01-08T05:34:19;5.70;99.90
64685;DHT22;51109;47.414;18.954;2023-01-08T05:36:45;5.70;99.90
64685;DHT22;51109;47.414;18.954;2023-01-08T05:39:11;5.70;99.90
64685;DHT22;51109;47.414;18.954;2023-01-08T05:41:36;5.70;99.90
64685;DHT22;51109;47.414;18.954;2023-01-08T05:44:02;5.70;99.90
64685;DHT22;51109;47.414;18.954;2023-01-08T05:46:28;5.70;99.90
64685;DHT22;51109;47.414;18.954;2023-01-08T05:48:54;5.80;99.90
64685;DHT22;51109;47.414;18.954;2023-01-08T05:51:20;5.80;99.90
64685;DHT22;51109;47.414;18.954;2023-01-08T05:53:46;5.80;99.90
64685;DHT22;51109;47.414;18.954;2023-01-08T05:56:13;5.80;99.90
64685;DHT22;51109;47.414;18.954;2023-01-08T05:58:39;5.80;99.90
64685;DHT22;51109;47.414;18.954;2023-01-08T06:01:10;5.80;99.90
64685;DHT22;51109;47.414;18.954;2023-01-08T06:03:37;5.80;99.90
64685;DHT22;51109;47.414;18.954;2023-01-08T06:06:04;5.80;99.90
64685;DHT22;51109;47.414;18.954;2023-01-08T06:08:32;5.70;99.90
64685;DHT22;51109;47.414;18.954;2023-01-08T06:10:59;5.70;99.90
64685;DHT22;51109;47.414;18.954;2023-01-08T06:13:25;5.70;99.90
64685;DHT22;51109;47.414;18.954;2023-01-08T06:15:51;5.70;99.90
64685;DHT22;51109;47.414;18.954;2023-01-08T06:18:18;5.70;99.90
64685;DHT22;51109;47.414;18.954;2023-01-08T06:20:43;5.70;99.90
64685;DHT22;51109;47.414;18.954;2023-01-08T06:23:09;5.70;99.90
64685;DHT22;51109;47.414;18.954;2023-01-08T06:25:36;5.80;99.90
64685;DHT22;51109;47.414;18.954;2023-01-08T06:28:02;5.70;99.90
64685;DHT22;51109;47.414;18.954;2023-01-08T06:30:29;5.70;99.90
64685;DHT22;51109;47.414;18.954;2023-01-08T06:32:58;5.70;99.90
64685;DHT22;51109;47.414;18.954;2023-01-08T06:35:25;5.70;99.90
64685;DHT22;51109;47.414;18.954;2023-01-08T06:37:53;5.70;99.90
64685;DHT22;51109;47.414;18.954;2023-01-08T06:40:20;5.70;99.90
64685;DHT22;51109;47.414;18.954;2023-01-08T06:42:46;5.70;99.90
64685;DHT22;51109;47.414;18.954;2023-01-08T06:45:12;5.70;99.90
64685;DHT22;51109;47.414;18.954;2023-01-08T06:47:38;5.70;99.90
64685;DHT22;51109;47.414;18.954;2023-01-08T06:50:04;5.70;99.90
64685;DHT22;51109;47.414;18.954;2023-01-08T06:52:31;5.70;99.90
64685;DHT22;51109;47.414;18.954;2023-01-08T06:54:57;5.70;99.90
64685;DHT22;51109;47.414;18.954;2023-01-08T06:57:23;5.70;99.90
64685;DHT22;51109;47.414;18.954;2023-01-08T06:59:49;5.70;99.90
64685;DHT22;51109;47.414;18.954;2023-01-08T07:02:17;5.70;99.90
64685;DHT22;51109;47.414;18.954;2023-01-08T07:04:43;5.70;99.90
64685;DHT22;51109;47.414;18.954;2023-01-08T07:07:17;5.70;99.90
64685;DHT22;51109;47.414;18.954;2023-01-08T07:09:43;5.70;99.90
64685;DHT22;51109;47.414;18.954;2023-01-08T07:12:13;5.70;99.90
64685;DHT22;51109;47.414;18.954;2023-01-08T07:14:39;5.70;99.90
64685;DHT22;51109;47.414;18.954;2023-01-08T07:17:05;5.70;99.90
64685;DHT22;51109;47.414;18.954;2023-01-08T07:19:31;5.70;99.90
64685;DHT22;51109;47.414;18.954;2023-01-08T07:21:57;5.70;99.90
64685;DHT22;51109;47.414;18.954;2023-01-08T07:24:23;5.70;99.90
64685;DHT22;51109;47.414;18.954;2023-01-08T07:26:49;5.70;99.90
64685;DHT22;51109;47.414;18.954;2023-01-08T07:29:15;5.70;99.90
64685;DHT22;51109;47.414;18.954;2023-01-08T07:31:40;5.70;99.90
64685;DHT22;51109;47.414;18.954;2023-01-08T07:34:13;5.70;99.90
64685;DHT22;51109;47.414;18.954;2023-01-08T07:36:38;7.10;99.90
64685;DHT22;51109;47.414;18.954;2023-01-08T07:39:04;5.70;99.90
64685;DHT22;51109;47.414;18.954;2023-01-08T07:41:30;5.70;99.90
64685;DHT22;51109;47.414;18.954;2023-01-08T07:43:56;5.60;99.90
64685;DHT22;51109;47.414;18.954;2023-01-08T07:46:24;5.60;99.90
64685;DHT22;51109;47.414;18.954;2023-01-08T07:48:50;5.60;99.90
64685;DHT22;51109;47.414;18.954;2023-01-08T07:51:17;5.60;99.90
64685;DHT22;51109;47.414;18.954;2023-01-08T07:53:43;5.60;99.90
64685;DHT22;51109;47.414;18.954;2023-01-08T07:56:09;5.60;99.90
64685;DHT22;51109;47.414;18.954;2023-01-08T07:58:36;5.60;99.90
64685;DHT22;51109;47.414;18.954;2023-01-08T08:01:03;5.60;99.90
64685;DHT22;51109;47.414;18.954;2023-01-08T08:03:31;5.60;99.90
64685;DHT22;51109;47.414;18.954;2023-01-08T08:05:59;5.60;99.90
64685;DHT22;51109;47.414;18.954;2023-01-08T08:08:26;5.60;99.90
64685;DHT22;51109;47.414;18.954;2023-01-08T08:10:52;5.60;99.90
64685;DHT22;51109;47.414;18.954;2023-01-08T08:13:17;5.60;99.90
64685;DHT22;51109;47.414;18.954;2023-01-08T08:15:44;5.60;99.90
64685;DHT22;51109;47.414;18.954;2023-01-08T08:18:09;5.60;99.90
64685;DHT22;51109;47.414;18.954;2023-01-08T08:20:36;5.70;99.90
64685;DHT22;51109;47.414;18.954;2023-01-08T08:23:04;5.70;99.90
64685;DHT22;51109;47.414;18.954;2023-01-08T08:25:30;5.60;99.90
64685;DHT22;51109;47.414;18.954;2023-01-08T08:28:00;5.60;99.90
64685;DHT22;51109;47.414;18.954;2023-01-08T08:30:28;5.70;99.90
64685;DHT22;51109;47.414;18.954;2023-01-08T08:32:54;5.70;99.90
64685;DHT22;51109;47.414;18.954;2023-01-08T08:35:21;5.70;99.90
64685;DHT22;51109;47.414;18.954;2023-01-08T08:37:47;5.80;99.90
64685;DHT22;51109;47.414;18.954;2023-01-08T08:40:13;5.80;99.90
64685;DHT22;51109;47.414;18.954;2023-01-08T08:42:39;5.80;99.90
64685;DHT22;51109;47.414;18.954;2023-01-08T08:45:06;5.80;99.90
64685;DHT22;51109;47.414;18.954;2023-01-08T08:47:32;5.80;99.90
64685;DHT22;51109;47.414;18.954;2023-01-08T08:49:57;5.90;99.90
64685;DHT22;51109;47.414;18.954;2023-01-08T08:52:23;5.90;99.90
64685;DHT22;51109;47.414;18.954;2023-01-08T08:54:49;5.90;99.90
64685;DHT22;51109;47.414;18.954;2023-01-08T08:57:15;5.90;99.90
64685;DHT22;51109;47.414;18.954;2023-01-08T08:59:41;5.90;99.90
64685;DHT22;51109;47.414;18.954;2023-01-08T09:02:09;5.90;99.90
64685;DHT22;51109;47.414;18.954;2023-01-08T09:04:35;6.00;99.90
64685;DHT22;51109;47.414;18.954;2023-01-08T09:07:01;6.00;99.90
64685;DHT22;51109;47.414;18.954;2023-01-08T09:09:27;6.00;99.90
64685;DHT22;51109;47.414;18.954;2023-01-08T09:11:53;6.10;99.90
64685;DHT22;51109;47.414;18.954;2023-01-08T09:14:20;6.10;99.90
64685;DHT22;51109;47.414;18.954;2023-01-08T09:16:46;6.20;99.90
64685;DHT22;51109;47.414;18.954;2023-01-08T09:19:11;6.20;99.90
64685;DHT22;51109;47.414;18.954;2023-01-08T09:21:37;6.20;99.90
64685;DHT22;51109;47.414;18.954;2023-01-08T09:24:03;6.20;99.90
64685;DHT22;51109;47.414;18.954;2023-01-08T09:26:29;6.20;99.90
64685;DHT22;51109;47.414;18.954;2023-01-08T09:28:57;6.20;99.90
64685;DHT22;51109;47.414;18.954;2023-01-08T09:31:24;6.30;99.90
64685;DHT22;51109;47.414;18.954;2023-01-08T09:33:50;6.40;99.90
64685;DHT22;51109;47.414;18.954;2023-01-08T09:36:16;6.30;99.90
64685;DHT22;51109;47.414;18.954;2023-01-08T09:38:42;6.40;99.90
64685;DHT22;51109;47.414;18.954;2023-01-08T09:41:15;6.60;99.90
64685;DHT22;51109;47.414;18.954;2023-01-08T09:43:44;6.70;99.90
64685;DHT22;51109;47.414;18.954;2023-01-08T09:46:11;6.70;99.90
64685;DHT22;51109;47.414;18.954;2023-01-08T09:48:40;6.80;99.90
64685;DHT22;51109;47.414;18.954;2023-01-08T09:51:14;6.70;99.90
64685;DHT22;51109;47.414;18.954;2023-01-08T09:53:41;6.90;99.90
64685;DHT22;51109;47.414;18.954;2023-01-08T09:56:15;7.00;99.90
64685;DHT22;51109;47.414;18.954;2023-01-08T10:01:17;7.10;99.90
64685;DHT22;51109;47.414;18.954;2023-01-08T10:03:49;7.20;99.90
64685;DHT22;51109;47.414;18.954;2023-01-08T10:06:16;7.30;99.90
64685;DHT22;51109;47.414;18.954;2023-01-08T10:08:43;7.40;99.90
64685;DHT22;51109;47.414;18.954;2023-01-08T10:11:15;7.40;99.90
64685;DHT22;51109;47.414;18.954;2023-01-08T10:13:54;9.00;99.90
64685;DHT22;51109;47.414;18.954;2023-01-08T10:16:41;7.60;99.90
64685;DHT22;51109;47.414;18.954;2023-01-08T10:19:08;7.60;99.90
64685;DHT22;51109;47.414;18.954;2023-01-08T10:21:39;7.80;99.90
64685;DHT22;51109;47.414;18.954;2023-01-08T10:24:06;7.90;99.90
64685;DHT22;51109;47.414;18.954;2023-01-08T10:26:34;8.00;99.90
64685;DHT22;51109;47.414;18.954;2023-01-08T10:29:19;8.10;99.90
64685;DHT22;51109;47.414;18.954;2023-01-08T10:31:51;8.10;99.90
64685;DHT22;51109;47.414;18.954;2023-01-08T10:34:45;8.10;99.90
64685;DHT22;51109;47.414;18.954;2023-01-08T10:37:27;8.00;99.90
64685;DHT22;51109;47.414;18.954;2023-01-08T10:39:58;8.00;99.90
64685;DHT22;51109;47.414;18.954;2023-01-08T10:42:26;8.00;99.90
64685;DHT22;51109;47.414;18.954;2023-01-08T10:45:02;8.00;99.90
64685;DHT22;51109;47.414;18.954;2023-01-08T10:47:35;7.90;99.90
64685;DHT22;51109;47.414;18.954;2023-01-08T10:50:03;7.90;99.90
64685;DHT22;51109;47.414;18.954;2023-01-08T10:52:32;7.90;99.90
64685;DHT22;51109;47.414;18.954;2023-01-08T10:57:39;7.90;99.90
64685;DHT22;51109;47.414;18.954;2023-01-08T11:00:24;8.00;99.90
64685;DHT22;51109;47.414;18.954;2023-01-08T11:02:51;8.00;99.90
64685;DHT22;51109;47.414;18.954;2023-01-08T11:05:17;8.00;99.90
64685;DHT22;51109;47.414;18.954;2023-01-08T11:07:48;8.10;99.90
64685;DHT22;51109;47.414;18.954;2023-01-08T11:10:22;8.20;99.90
64685;DHT22;51109;47.414;18.954;2023-01-08T11:13:00;8.30;99.90
64685;DHT22;51109;47.414;18.954;2023-01-08T11:15:36;8.40;99.90
64685;DHT22;51109;47.414;18.954;2023-01-08T11:20:47;8.40;99.90
64685;DHT22;51109;47.414;18.954;2023-01-08T11:28:54;8.60;99.90
64685;DHT22;51109;47.414;18.954;2023-01-08T11:31:32;8.80;99.90
64685;DHT22;51109;47.414;18.954;2023-01-08T11:34:06;8.80;99.90
64685;DHT22;51109;47.414;18.954;2023-01-08T11:36:46;8.90;99.90
64685;DHT22;51109;47.414;18.954;2023-01-08T11:39:17;8.90;99.90
64685;DHT22;51109;47.414;18.954;2023-01-08T11:50:34;9.20;99.90
64685;DHT22;51109;47.414;18.954;2023-01-08T11:53:25;9.20;99.90
64685;DHT22;51109;47.414;18.954;2023-01-08T12:03:48;9.50;99.90
64685;DHT22;51109;47.414;18.954;2023-01-08T12:14:59;9.60;99.90
64685;DHT22;51109;47.414;18.954;2023-01-08T12:21:08;9.60;99.90
64685;DHT22;51109;47.414;18.954;2023-01-08T12:23:49;9.70;99.90
64685;DHT22;51109;47.414;18.954;2023-01-08T12:35:20;9.60;99.90
64685;DHT22;51109;47.414;18.954;2023-01-08T12:40:31;9.60;99.90
64685;DHT22;51109;47.414;18.954;2023-01-08T12:42:59;9.50;99.90
64685;DHT22;51109;47.414;18.954;2023-01-08T12:45:36;9.50;99.90
64685;DHT22;51109;47.414;18.954;2023-01-08T12:48:14;9.60;99.90
64685;DHT22;51109;47.414;18.954;2023-01-08T12:51:00;9.60;99.90
64685;DHT22;51109;47.414;18.954;2023-01-08T12:53:53;9.60;99.90
64685;DHT22;51109;47.414;18.954;2023-01-08T12:56:27;9.60;99.90
64685;DHT22;51109;47.414;18.954;2023-01-08T13:04:50;9.60;99.90
64685;DHT22;51109;47.414;18.954;2023-01-08T13:07:23;9.50;99.90
64685;DHT22;51109;47.414;18.954;2023-01-08T13:10:00;9.60;99.90
64685;DHT22;51109;47.414;18.954;2023-01-08T13:12:39;9.60;99.90
64685;DHT22;51109;47.414;18.954;2023-01-08T13:15:21;9.60;99.90
64685;DHT22;51109;47.414;18.954;2023-01-08T13:17:48;9.60;99.90
64685;DHT22;51109;47.414;18.954;2023-01-08T13:20:22;9.60;99.90
64685;DHT22;51109;47.414;18.954;2023-01-08T13:22:58;9.60;99.90
64685;DHT22;51109;47.414;18.954;2023-01-08T13:27:50;9.60;99.90
64685;DHT22;51109;47.414;18.954;2023-01-08T13:30:36;9.60;99.90
64685;DHT22;51109;47.414;18.954;2023-01-08T13:35:49;9.60;99.90
64685;DHT22;51109;47.414;18.954;2023-01-08T13:38:19;9.70;99.90
64685;DHT22;51109;47.414;18.954;2023-01-08T13:43:20;9.60;99.90
64685;DHT22;51109;47.414;18.954;2023-01-08T13:46:04;9.70;99.90
64685;DHT22;51109;47.414;18.954;2023-01-08T13:48:36;9.70;99.90
64685;DHT22;51109;47.414;18.954;2023-01-08T13:51:16;9.70;99.90
64685;DHT22;51109;47.414;18.954;2023-01-08T13:53:49;9.70;99.90
64685;DHT22;51109;47.414;18.954;2023-01-08T13:56:15;9.80;99.90
64685;DHT22;51109;47.414;18.954;2023-01-08T13:58:51;9.80;99.90
64685;DHT22;51109;47.414;18.954;2023-01-08T14:01:18;9.80;99.90
64685;DHT22;51109;47.414;18.954;2023-01-08T14:03:47;9.80;99.90
64685;DHT22;51109;47.414;18.954;2023-01-08T14:06:23;9.80;99.90
64685;DHT22;51109;47.414;18.954;2023-01-08T14:08:59;9.80;99.90
64685;DHT22;51109;47.414;18.954;2023-01-08T14:11:40;9.80;99.90
64685;DHT22;51109;47.414;18.954;2023-01-08T14:14:12;9.80;99.90
64685;DHT22;51109;47.414;18.954;2023-01-08T14:16:39;9.70;99.90
64685;DHT22;51109;47.414;18.954;2023-01-08T14:19:06;9.80;99.90
64685;DHT22;51109;47.414;18.954;2023-01-08T14:21:33;9.80;99.90
64685;DHT22;51109;47.414;18.954;2023-01-08T14:23:59;9.80;99.90
64685;DHT22;51109;47.414;18.954;2023-01-08T14:26:36;9.80;99.90
64685;DHT22;51109;47.414;18.954;2023-01-08T14:29:14;9.80;99.90
64685;DHT22;51109;47.414;18.954;2023-01-08T14:31:58;9.80;99.90
64685;DHT22;51109;47.414;18.954;2023-01-08T14:34:26;9.90;99.90
64685;DHT22;51109;47.414;18.954;2023-01-08T14:36:54;9.90;99.90
64685;DHT22;51109;47.414;18.954;2023-01-08T14:39:22;9.90;99.90
64685;DHT22;51109;47.414;18.954;2023-01-08T14:41:49;9.80;99.90
64685;DHT22;51109;47.414;18.954;2023-01-08T14:44:38;9.80;99.90
64685;DHT22;51109;47.414;18.954;2023-01-08T14:47:05;9.70;99.90
64685;DHT22;51109;47.414;18.954;2023-01-08T14:49:33;9.70;99.90
64685;DHT22;51109;47.414;18.954;2023-01-08T14:52:10;9.70;99.90
64685;DHT22;51109;47.414;18.954;2023-01-08T14:54:37;9.70;99.90
64685;DHT22;51109;47.414;18.954;2023-01-08T14:57:04;9.70;99.90
64685;DHT22;51109;47.414;18.954;2023-01-08T14:59:32;9.70;99.90
64685;DHT22;51109;47.414;18.954;2023-01-08T15:02:01;9.70;99.90
64685;DHT22;51109;47.414;18.954;2023-01-08T15:04:28;9.70;99.90
64685;DHT22;51109;47.414;18.954;2023-01-08T15:09:32;9.80;99.90
64685;DHT22;51109;47.414;18.954;2023-01-08T15:12:04;9.80;99.90
64685;DHT22;51109;47.414;18.954;2023-01-08T15:14:30;9.90;99.90
64685;DHT22;51109;47.414;18.954;2023-01-08T15:17:10;9.90;99.90
64685;DHT22;51109;47.414;18.954;2023-01-08T15:19:45;9.90;99.90
64685;DHT22;51109;47.414;18.954;2023-01-08T15:22:18;10.00;99.90
64685;DHT22;51109;47.414;18.954;2023-01-08T15:24:59;9.90;99.90
64685;DHT22;51109;47.414;18.954;2023-01-08T15:27:26;9.90;99.90
64685;DHT22;51109;47.414;18.954;2023-01-08T15:29:54;9.90;99.90
64685;DHT22;51109;47.414;18.954;2023-01-08T15:32:33;9.90;99.90
64685;DHT22;51109;47.414;18.954;2023-01-08T15:35:15;9.90;99.90
64685;DHT22;51109;47.414;18.954;2023-01-08T15:37:41;9.90;99.90
64685;DHT22;51109;47.414;18.954;2023-01-08T15:40:10;9.90;99.90
64685;DHT22;51109;47.414;18.954;2023-01-08T15:42:36;9.90;99.90
64685;DHT22;51109;47.414;18.954;2023-01-08T15:45:27;10.00;99.90
64685;DHT22;51109;47.414;18.954;2023-01-08T15:47:53;9.90;99.90
64685;DHT22;51109;47.414;18.954;2023-01-08T15:50:20;9.90;99.90
64685;DHT22;51109;47.414;18.954;2023-01-08T15:52:46;10.00;99.90
64685;DHT22;51109;47.414;18.954;2023-01-08T15:55:17;10.00;99.90
64685;DHT22;51109;47.414;18.954;2023-01-08T15:57:43;10.00;99.90
64685;DHT22;51109;47.414;18.954;2023-01-08T16:00:11;10.00;99.90
64685;DHT22;51109;47.414;18.954;2023-01-08T16:02:42;10.00;99.90
64685;DHT22;51109;47.414;18.954;2023-01-08T16:05:09;10.00;99.90
64685;DHT22;51109;47.414;18.954;2023-01-08T16:07:37;10.00;99.90
64685;DHT22;51109;47.414;18.954;2023-01-08T16:10:04;10.00;99.90
64685;DHT22;51109;47.414;18.954;2023-01-08T16:12:30;10.00;99.90
64685;DHT22;51109;47.414;18.954;2023-01-08T16:14:59;10.00;99.90
64685;DHT22;51109;47.414;18.954;2023-01-08T16:17:24;10.00;99.90
64685;DHT22;51109;47.414;18.954;2023-01-08T16:19:50;10.00;99.90
64685;DHT22;51109;47.414;18.954;2023-01-08T16:22:16;10.00;99.90
64685;DHT22;51109;47.414;18.954;2023-01-08T16:24:42;10.00;99.90
64685;DHT22;51109;47.414;18.954;2023-01-08T16:27:08;10.00;99.90
64685;DHT22;51109;47.414;18.954;2023-01-08T16:29:34;10.10;99.90
64685;DHT22;51109;47.414;18.954;2023-01-08T16:32:00;10.00;99.90
64685;DHT22;51109;47.414;18.954;2023-01-08T16:34:26;10.00;99.90
64685;DHT22;51109;47.414;18.954;2023-01-08T16:36:52;10.00;99.90
64685;DHT22;51109;47.414;18.954;2023-01-08T16:39:18;10.10;99.90
64685;DHT22;51109;47.414;18.954;2023-01-08T16:41:44;10.10;99.90
64685;DHT22;51109;47.414;18.954;2023-01-08T16:44:23;10.10;99.90
64685;DHT22;51109;47.414;18.954;2023-01-08T16:46:49;10.10;99.90
64685;DHT22;51109;47.414;18.954;2023-01-08T16:49:16;10.10;99.90
64685;DHT22;51109;47.414;18.954;2023-01-08T16:51:42;10.10;99.90
64685;DHT22;51109;47.414;18.954;2023-01-08T16:54:12;10.00;99.90
64685;DHT22;51109;47.414;18.954;2023-01-08T16:56:38;10.00;99.90
64685;DHT22;51109;47.414;18.954;2023-01-08T16:59:05;10.00;99.90
64685;DHT22;51109;47.414;18.954;2023-01-08T17:01:32;10.00;99.90
64685;DHT22;51109;47.414;18.954;2023-01-08T17:03:58;10.10;99.90
64685;DHT22;51109;47.414;18.954;2023-01-08T17:06:24;9.90;99.90
64685;DHT22;51109;47.414;18.954;2023-01-08T17:08:50;9.80;99.90
64685;DHT22;51109;47.414;18.954;2023-01-08T17:11:19;9.80;99.90
64685;DHT22;51109;47.414;18.954;2023-01-08T17:13:46;9.80;99.90
64685;DHT22;51109;47.414;18.954;2023-01-08T17:16:14;9.90;99.90
64685;DHT22;51109;47.414;18.954;2023-01-08T17:18:41;9.90;99.90
64685;DHT22;51109;47.414;18.954;2023-01-08T17:21:10;9.90;99.90